Time;durP1;ratioP1;P1;durP2;ratioP2;P2;SDS_P1;SDS_P2;PMS_P1;PMS_P2;Temp;Humidity;BMP_temperature;BMP_pressure;BME280_temperature;BME280_humidity;BME280_pressure;Samples;Min_cycle;Max_cycle;Signal;HPM_P1;HPM_P2
2024/01/18 00:01:09;;;;;;;17.10;9.40;;;-2.30;99.90;;;;;;6148304;23;20010;-86
2024/01/18 00:03:40;;;;;;;18.33;9.98;;;-2.30;99.90;;;;;;6149370;23;20013;-85
2024/01/18 00:06:08;;;;;;;20.17;9.93;;;-2.20;99.90;;;;;;6149216;23;20033;-85
2024/01/18 00:08:34;;;;;;;24.48;9.77;;;-2.20;99.90;;;;;;6174025;23;20065;-85
2024/01/18 00:11:01;;;;;;;20.92;9.75;;;-2.20;99.90;;;;;;6149327;23;20103;-85
2024/01/18 00:13:28;;;;;;;23.00;9.60;;;-2.10;99.90;;;;;;6149174;23;20021;-85
2024/01/18 00:15:54;;;;;;;18.75;9.10;;;-2.20;99.90;;;;;;6149503;23;20348;-86
2024/01/18 00:18:21;;;;;;;21.33;9.25;;;-2.10;99.90;;;;;;6149341;23;20092;-85
2024/01/18 00:20:48;;;;;;;14.25;8.23;;;-2.10;99.90;;;;;;6173724;23;20018;-85
2024/01/18 00:23:14;;;;;;;15.18;8.27;;;-1.00;99.90;;;;;;6149292;23;20349;-85
2024/01/18 00:25:41;;;;;;;18.00;8.30;;;-2.20;99.90;;;;;;6149436;23;20068;-85
2024/01/18 00:28:08;;;;;;;14.77;7.93;;;-2.10;99.90;;;;;;6149270;23;20014;-85
2024/01/18 00:30:34;;;;;;;19.40;7.50;;;-2.10;99.90;;;;;;6149120;23;20049;-86
2024/01/18 00:33:01;;;;;;;20.10;7.50;;;-2.10;99.90;;;;;;6149183;23;20024;-86
2024/01/18 00:35:28;;;;;;;16.30;7.30;;;-2.20;99.90;;;;;;6149360;23;20021;-85
2024/01/18 00:37:54;;;;;;;14.85;6.63;;;-2.20;99.90;;;;;;6149118;23;20455;-86
2024/01/18 00:40:21;;;;;;;14.77;6.95;;;-2.30;99.90;;;;;;6149198;23;20010;-86
2024/01/18 00:42:47;;;;;;;11.57;6.05;;;-2.30;99.90;;;;;;6149110;23;20017;-85
2024/01/18 00:45:14;;;;;;;17.85;6.40;;;-2.30;99.90;;;;;;6149546;23;20010;-86
2024/01/18 00:47:41;;;;;;;13.50;5.85;;;-2.30;99.90;;;;;;6149437;23;20376;-86
2024/01/18 00:50:08;;;;;;;13.98;6.15;;;-2.40;99.90;;;;;;6149338;23;20009;-86
2024/01/18 00:52:34;;;;;;;13.52;6.22;;;-2.40;99.90;;;;;;6148826;23;20020;-85
2024/01/18 00:55:01;;;;;;;12.20;6.18;;;-2.40;99.90;;;;;;6149089;23;20507;-86
2024/01/18 00:57:28;;;;;;;14.30;6.35;;;-2.30;99.90;;;;;;6149191;23;20436;-85
2024/01/18 00:59:55;;;;;;;15.27;5.80;;;-2.50;99.90;;;;;;6148936;23;20096;-85
2024/01/18 01:02:22;;;;;;;18.55;5.30;;;-2.50;99.90;;;;;;6148857;23;20133;-85
2024/01/18 01:04:48;;;;;;;9.95;5.32;;;-2.50;99.90;;;;;;6148899;23;20010;-85
2024/01/18 01:07:15;;;;;;;14.00;5.22;;;-2.60;99.90;;;;;;6173318;23;20020;-86
2024/01/18 01:09:41;;;;;;;13.18;5.00;;;-2.60;99.90;;;;;;6148748;23;20013;-85
2024/01/18 01:12:08;;;;;;;10.43;4.63;;;-2.60;99.90;;;;;;6172781;23;20018;-86
2024/01/18 01:14:35;;;;;;;9.57;4.55;;;-2.60;99.90;;;;;;6148807;23;20018;-86
2024/01/18 01:17:02;;;;;;;13.68;4.40;;;-2.70;99.90;;;;;;6148586;23;20013;-86
2024/01/18 01:19:29;;;;;;;7.78;4.10;;;-2.70;99.90;;;;;;6173178;23;20088;-85
2024/01/18 01:21:55;;;;;;;10.48;4.55;;;-2.50;99.90;;;;;;6148630;23;20021;-86
2024/01/18 01:24:22;;;;;;;9.10;4.93;;;-2.70;99.90;;;;;;6148750;23;20068;-85
2024/01/18 01:26:49;;;;;;;10.88;4.60;;;-2.70;99.90;;;;;;6148716;23;20014;-86
2024/01/18 01:29:16;;;;;;;9.38;4.10;;;-2.80;99.90;;;;;;6148577;23;20010;-86
2024/01/18 01:31:43;;;;;;;8.43;3.70;;;-2.70;99.90;;;;;;6148560;23;20017;-86
2024/01/18 01:34:10;;;;;;;7.45;3.72;;;-2.80;99.90;;;;;;6148609;23;20010;-85
2024/01/18 01:36:37;;;;;;;11.18;3.90;;;-2.80;99.90;;;;;;6148863;23;20100;-86
2024/01/18 01:39:04;;;;;;;10.88;4.03;;;-2.80;99.90;;;;;;6148659;23;20044;-85
2024/01/18 01:41:31;;;;;;;10.95;4.55;;;-2.90;99.90;;;;;;6148521;23;20057;-86
2024/01/18 01:44:01;;;;;;;10.63;4.93;;;-1.50;99.90;;;;;;6173296;23;20072;-86
2024/01/18 01:46:29;;;;;;;9.27;4.82;;;-3.00;99.90;;;;;;6148504;23;20014;-86
2024/01/18 01:49:01;;;;;;;14.38;5.05;;;-2.90;99.90;;;;;;6148625;23;20048;-86
2024/01/18 01:51:43;;;;;;;12.35;5.28;;;-2.80;99.90;;;;;;6148453;23;20017;-86
2024/01/18 01:54:10;;;;;;;10.32;4.85;;;-2.80;99.90;;;;;;6148553;23;20020;-86
2024/01/18 01:56:38;;;;;;;10.27;4.97;;;-1.30;99.90;;;;;;6148802;23;20069;-86
2024/01/18 01:59:08;;;;;;;11.45;4.82;;;-1.30;99.90;;;;;;6148637;23;20384;-85
2024/01/18 02:01:36;;;;;;;10.48;5.03;;;-2.90;99.90;;;;;;6148342;23;20013;-86
2024/01/18 02:04:03;;;;;;;13.15;4.63;;;-2.60;99.90;;;;;;6148240;23;20437;-85
2024/01/18 02:06:32;;;;;;;11.13;4.70;;;-2.90;99.90;;;;;;6172678;23;20071;-85
2024/01/18 02:09:01;;;;;;;9.73;4.53;;;-2.90;99.90;;;;;;6148219;23;20626;-85
2024/01/18 02:11:28;;;;;;;11.77;4.85;;;-2.00;99.90;;;;;;6172837;23;20019;-85
2024/01/18 02:13:55;;;;;;;8.60;4.53;;;-1.80;99.90;;;;;;6142862;23;20024;-85
2024/01/18 02:16:21;;;;;;;12.63;4.47;;;-3.00;99.90;;;;;;6142904;23;20045;-86
2024/01/18 02:18:48;;;;;;;12.00;4.60;;;-2.40;99.90;;;;;;6143433;23;20014;-85
2024/01/18 02:21:15;;;;;;;13.73;4.65;;;-2.90;99.90;;;;;;6143301;23;20010;-86
2024/01/18 02:23:47;;;;;;;9.73;3.90;;;-2.80;99.90;;;;;;6142692;23;20093;-86
2024/01/18 02:26:14;;;;;;;8.70;3.38;;;-3.00;99.90;;;;;;6143575;23;20061;-86
2024/01/18 02:28:57;;;;;;;9.40;3.22;;;-2.90;99.90;;;;;;6167538;23;20014;-86
2024/01/18 02:31:24;;;;;;;8.88;3.42;;;-2.80;99.90;;;;;;6167769;23;20010;-86
2024/01/18 02:33:51;;;;;;;9.95;3.00;;;-2.70;99.90;;;;;;6142836;23;20018;-86
2024/01/18 02:36:21;;;;;;;4.93;2.55;;;-1.60;99.90;;;;;;6142742;23;20037;-85
2024/01/18 02:38:49;;;;;;;11.35;2.80;;;-2.50;99.90;;;;;;6142921;23;20013;-85
2024/01/18 02:41:16;;;;;;;6.75;2.55;;;-2.50;99.90;;;;;;6142759;23;20065;-85
2024/01/18 02:43:43;;;;;;;8.02;2.83;;;-2.40;99.90;;;;;;6167524;23;20392;-86
2024/01/18 02:46:09;;;;;;;7.75;1.95;;;-2.50;99.90;;;;;;6143249;23;20017;-86
2024/01/18 02:48:36;;;;;;;4.25;1.83;;;-2.40;99.90;;;;;;6142987;23;20097;-86
2024/01/18 02:51:04;;;;;;;10.38;2.08;;;-2.30;99.90;;;;;;6143053;23;20385;-86
2024/01/18 02:53:31;;;;;;;3.90;1.50;;;-2.30;99.90;;;;;;6142725;23;20017;-86
2024/01/18 02:55:57;;;;;;;4.68;1.67;;;-2.20;99.90;;;;;;6142794;23;20101;-85
2024/01/18 02:58:24;;;;;;;6.40;2.10;;;-2.20;99.90;;;;;;6167447;23;20437;-86
2024/01/18 03:00:50;;;;;;;4.18;1.80;;;-2.20;99.90;;;;;;6142594;23;20445;-86
2024/01/18 03:03:19;;;;;;;7.68;2.40;;;-2.30;99.90;;;;;;6142639;23;20024;-86
2024/01/18 03:05:45;;;;;;;3.90;1.73;;;-0.80;99.90;;;;;;6142688;23;20345;-85
2024/01/18 03:08:12;;;;;;;5.78;1.70;;;-2.30;99.90;;;;;;6142515;23;20017;-86
2024/01/18 03:10:39;;;;;;;5.28;1.73;;;-2.30;99.90;;;;;;6142669;23;20064;-86
2024/01/18 03:13:05;;;;;;;7.38;1.98;;;-1.00;99.90;;;;;;6142328;23;20069;-85
2024/01/18 03:15:32;;;;;;;3.10;1.30;;;-2.40;99.90;;;;;;6142687;23;20349;-86
2024/01/18 03:17:58;;;;;;;3.25;1.48;;;-2.40;99.90;;;;;;6167069;23;20021;-86
2024/01/18 03:20:25;;;;;;;7.03;1.98;;;-2.60;99.90;;;;;;6143186;23;20330;-86
2024/01/18 03:22:52;;;;;;;3.78;1.60;;;-2.50;99.90;;;;;;6142756;23;20021;-86
2024/01/18 03:25:18;;;;;;;6.60;1.60;;;-2.60;99.90;;;;;;6142750;23;20014;-86
2024/01/18 03:27:45;;;;;;;7.85;1.88;;;-2.60;99.90;;;;;;6142994;23;20049;-85
2024/01/18 03:30:11;;;;;;;5.57;1.40;;;-2.60;99.90;;;;;;6142819;23;20014;-86
2024/01/18 03:32:38;;;;;;;6.28;1.70;;;-2.70;99.90;;;;;;6142834;23;20021;-86
2024/01/18 03:35:06;;;;;;;10.00;1.83;;;-2.70;99.90;;;;;;6143375;23;20018;-86
2024/01/18 03:37:32;;;;;;;4.57;1.40;;;-2.70;99.90;;;;;;6144792;23;20014;-85
2024/01/18 03:39:59;;;;;;;4.75;1.58;;;-2.70;99.90;;;;;;6144605;23;20033;-86
2024/01/18 03:42:26;;;;;;;7.47;1.30;;;-2.70;99.90;;;;;;6144739;23;20014;-86
2024/01/18 03:44:52;;;;;;;3.75;1.45;;;-2.70;99.90;;;;;;6144947;23;20052;-86
2024/01/18 03:47:20;;;;;;;5.65;1.60;;;-2.80;99.90;;;;;;6144638;23;20006;-85
2024/01/18 03:49:46;;;;;;;5.53;1.77;;;-1.60;99.90;;;;;;6144742;23;20014;-86
2024/01/18 03:52:13;;;;;;;5.18;1.50;;;-1.10;99.90;;;;;;6144734;23;20337;-86
2024/01/18 03:54:39;;;;;;;2.97;1.30;;;-2.80;99.90;;;;;;6169035;23;20018;-86
2024/01/18 03:57:06;;;;;;;4.10;1.73;;;-1.60;99.90;;;;;;6144784;23;20014;-86
2024/01/18 03:59:33;;;;;;;5.63;2.50;;;-2.80;99.90;;;;;;6144552;23;20013;-86
2024/01/18 04:01:59;;;;;;;10.00;2.25;;;-2.20;99.90;;;;;;6144699;23;20014;-85
2024/01/18 04:04:26;;;;;;;11.07;1.98;;;-2.80;99.90;;;;;;6144440;23;20010;-86
2024/01/18 04:06:53;;;;;;;10.32;2.38;;;-2.80;99.90;;;;;;6144574;23;20009;-85
2024/01/18 04:09:19;;;;;;;7.25;2.38;;;-2.70;99.90;;;;;;6144395;23;20014;-85
2024/01/18 04:11:46;;;;;;;14.30;2.85;;;-2.70;99.90;;;;;;6144567;23;20006;-86
2024/01/18 04:14:13;;;;;;;7.05;2.15;;;-2.60;99.90;;;;;;6144165;23;20022;-85
2024/01/18 04:16:40;;;;;;;6.90;2.30;;;-2.60;99.90;;;;;;6144761;23;20013;-85
2024/01/18 04:19:07;;;;;;;6.25;2.00;;;-2.50;99.90;;;;;;6144451;23;20074;-85
2024/01/18 04:21:34;;;;;;;5.57;2.10;;;-2.40;99.90;;;;;;6144127;23;20046;-86
2024/01/18 04:24:00;;;;;;;8.77;1.40;;;-2.30;99.90;;;;;;6143999;23;20029;-86
2024/01/18 04:26:30;;;;;;;9.07;1.70;;;-2.20;99.90;;;;;;6144298;23;20334;-86
2024/01/18 04:28:57;;;;;;;3.78;1.63;;;-2.10;99.90;;;;;;6144049;23;20018;-86
2024/01/18 04:31:24;;;;;;;2.67;1.20;;;-2.00;99.90;;;;;;6168423;23;20466;-86
2024/01/18 04:33:51;;;;;;;5.50;1.13;;;-1.90;99.90;;;;;;6144320;23;20389;-86
2024/01/18 04:36:17;;;;;;;3.35;1.40;;;-1.80;99.90;;;;;;6144259;23;20077;-86
2024/01/18 04:38:44;;;;;;;5.40;1.45;;;-1.70;99.90;;;;;;6144312;23;20444;-86
2024/01/18 04:41:11;;;;;;;7.13;1.25;;;-1.70;99.90;;;;;;6168960;23;20018;-87
2024/01/18 04:43:37;;;;;;;3.05;0.90;;;-1.60;99.90;;;;;;6168651;23;20022;-86
2024/01/18 04:46:04;;;;;;;4.53;1.17;;;-1.60;99.90;;;;;;6143692;23;20145;-87
2024/01/18 04:48:31;;;;;;;4.85;1.30;;;0.10;99.90;;;;;;6143993;23;20007;-87
2024/01/18 04:50:58;;;;;;;2.67;1.00;;;-1.70;99.90;;;;;;6143974;23;20010;-87
2024/01/18 04:53:25;;;;;;;3.25;1.17;;;-1.70;99.90;;;;;;6143699;23;20025;-86
2024/01/18 04:55:51;;;;;;;5.38;1.17;;;-0.20;99.90;;;;;;6143815;23;20014;-87
2024/01/18 04:58:18;;;;;;;2.65;1.30;;;-1.80;99.90;;;;;;6143923;23;20092;-86
2024/01/18 05:00:45;;;;;;;5.78;3.13;;;-1.90;99.90;;;;;;6143702;23;20386;-86
2024/01/18 05:03:11;;;;;;;5.13;1.65;;;-0.80;99.90;;;;;;6143677;23;20105;-87
2024/01/18 05:05:38;;;;;;;6.00;2.00;;;-2.00;99.90;;;;;;6143720;23;20137;-86
2024/01/18 05:08:04;;;;;;;3.90;1.40;;;-2.00;99.90;;;;;;6143983;23;20472;-86
2024/01/18 05:10:31;;;;;;;3.83;1.33;;;-2.10;99.90;;;;;;6143705;23;20014;-87
2024/01/18 05:12:58;;;;;;;2.05;0.80;;;-2.10;99.90;;;;;;6143767;23;20018;-87
2024/01/18 05:15:25;;;;;;;5.35;0.88;;;-2.10;99.90;;;;;;6143562;23;20022;-87
2024/01/18 05:17:53;;;;;;;1.45;0.80;;;-2.00;99.90;;;;;;6143815;23;20014;-87
2024/01/18 05:20:20;;;;;;;3.78;1.23;;;-2.10;99.90;;;;;;6143649;23;20010;-87
2024/01/18 05:22:47;;;;;;;1.63;0.80;;;-2.00;99.90;;;;;;6143610;23;20105;-86
2024/01/18 05:25:14;;;;;;;4.93;1.45;;;-2.00;99.90;;;;;;6143753;23;20034;-87
2024/01/18 05:27:40;;;;;;;3.88;1.50;;;-2.10;99.90;;;;;;6143643;23;20006;-86
2024/01/18 05:30:08;;;;;;;2.80;1.08;;;-2.10;99.90;;;;;;6167867;23;20017;-87
2024/01/18 05:32:34;;;;;;;2.65;1.35;;;-2.20;99.90;;;;;;6143622;23;20014;-86
2024/01/18 05:35:01;;;;;;;4.03;1.20;;;-2.30;99.90;;;;;;6143663;23;20512;-86
2024/01/18 05:37:28;;;;;;;3.50;1.35;;;-2.40;99.90;;;;;;6143535;23;20490;-86
2024/01/18 05:39:54;;;;;;;1.52;0.98;;;-1.30;99.90;;;;;;6143223;23;20025;-86
2024/01/18 05:42:23;;;;;;;5.18;1.48;;;-2.50;99.90;;;;;;6143563;23;20017;-87
2024/01/18 05:44:51;;;;;;;3.50;0.80;;;-2.60;99.90;;;;;;6167852;23;20037;-87
2024/01/18 05:47:17;;;;;;;3.55;0.82;;;-2.60;99.90;;;;;;6143175;23;20018;-86
2024/01/18 05:49:44;;;;;;;3.08;1.00;;;-2.70;99.90;;;;;;6146726;23;20021;-86
2024/01/18 05:52:10;;;;;;;3.85;1.08;;;-2.70;99.90;;;;;;6146088;23;20102;-87
2024/01/18 05:54:37;;;;;;;2.45;1.17;;;-2.70;99.90;;;;;;6143558;23;20022;-86
2024/01/18 05:57:04;;;;;;;3.97;1.40;;;-2.80;99.90;;;;;;6143116;23;20010;-86
2024/01/18 05:59:31;;;;;;;4.32;1.80;;;-3.10;99.90;;;;;;6142722;23;20117;-87
2024/01/18 06:01:58;;;;;;;5.93;2.10;;;-2.90;99.90;;;;;;6143129;23;20052;-86
2024/01/18 06:04:25;;;;;;;7.45;2.33;;;-1.40;99.90;;;;;;6143276;23;20010;-86
2024/01/18 06:06:52;;;;;;;8.52;2.97;;;-3.00;99.90;;;;;;6143283;23;20014;-86
2024/01/18 06:09:19;;;;;;;8.98;2.78;;;-1.60;99.90;;;;;;6142750;23;20010;-86
2024/01/18 06:11:48;;;;;;;5.68;2.42;;;-3.10;99.90;;;;;;6143062;23;20017;-86
2024/01/18 06:14:15;;;;;;;8.60;2.70;;;-3.10;99.90;;;;;;6142777;23;20014;-86
2024/01/18 06:16:42;;;;;;;8.65;2.90;;;-3.20;99.90;;;;;;6143526;23;20057;-86
2024/01/18 06:19:10;;;;;;;9.85;3.00;;;-3.20;99.90;;;;;;6143028;23;20010;-87
2024/01/18 06:21:36;;;;;;;9.15;3.33;;;-3.30;99.90;;;;;;6143556;23;20061;-86
2024/01/18 06:24:03;;;;;;;7.40;2.20;;;-1.90;99.90;;;;;;6142601;23;20389;-86
2024/01/18 06:26:30;;;;;;;6.13;2.28;;;-3.30;99.90;;;;;;6142959;23;20448;-86
2024/01/18 06:28:56;;;;;;;3.85;1.08;;;-2.40;99.90;;;;;;6142744;23;20010;-86
2024/01/18 06:31:26;;;;;;;4.82;1.55;;;-3.30;99.90;;;;;;6142972;23;20077;-86
2024/01/18 06:33:53;;;;;;;5.43;1.95;;;-3.30;99.90;;;;;;6167357;23;20452;-86
2024/01/18 06:36:22;;;;;;;5.38;1.75;;;-2.30;99.90;;;;;;6142773;23;20536;-86
2024/01/18 06:38:51;;;;;;;4.50;1.58;;;-2.90;99.90;;;;;;6166592;23;20020;-86
2024/01/18 06:41:19;;;;;;;4.63;1.60;;;-3.10;99.90;;;;;;6142570;23;20018;-87
2024/01/18 06:43:46;;;;;;;4.38;1.45;;;-3.10;99.90;;;;;;6166792;23;20014;-86
2024/01/18 06:46:17;;;;;;;3.33;1.17;;;-3.00;99.90;;;;;;6166786;23;20021;-86
2024/01/18 06:48:50;;;;;;;6.20;1.15;;;-1.60;99.90;;;;;;6167040;23;20034;-86
2024/01/18 06:51:17;;;;;;;6.00;1.15;;;-2.80;99.90;;;;;;6142565;23;20010;-86
2024/01/18 06:53:44;;;;;;;6.20;2.20;;;-2.70;99.90;;;;;;6142918;23;20014;-86
2024/01/18 06:56:12;;;;;;;4.72;1.85;;;-1.40;99.90;;;;;;6142605;23;20013;-86
2024/01/18 06:58:38;;;;;;;5.55;1.77;;;-1.20;99.90;;;;;;6142695;23;20018;-86
2024/01/18 07:01:06;;;;;;;3.13;1.38;;;-1.20;99.90;;;;;;6142804;23;20014;-86
2024/01/18 07:03:35;;;;;;;4.45;1.30;;;-1.50;99.90;;;;;;6142263;23;20060;-86
2024/01/18 07:06:05;;;;;;;4.88;1.30;;;-2.40;99.90;;;;;;6142550;23;20500;-86
2024/01/18 07:08:33;;;;;;;3.65;1.20;;;-2.40;99.90;;;;;;6142414;23;20007;-86
2024/01/18 07:11:01;;;;;;;5.13;1.33;;;-2.40;99.90;;;;;;6142823;23;20010;-86
2024/01/18 07:13:28;;;;;;;6.55;1.60;;;-2.40;99.90;;;;;;6142462;23;20594;-86
2024/01/18 07:15:54;;;;;;;7.07;2.20;;;-2.40;99.90;;;;;;6142491;23;20018;-86
2024/01/18 07:18:21;;;;;;;5.88;2.25;;;-2.40;99.90;;;;;;6142612;23;20022;-86
2024/01/18 07:20:48;;;;;;;13.63;3.88;;;-2.50;99.90;;;;;;6142284;23;20478;-86
2024/01/18 07:23:14;;;;;;;8.30;2.80;;;-2.60;99.90;;;;;;6142427;23;20101;-86
2024/01/18 07:25:41;;;;;;;4.85;1.85;;;-2.60;99.90;;;;;;6166644;23;20014;-86
2024/01/18 07:28:08;;;;;;;8.25;1.75;;;-2.60;99.90;;;;;;6142402;23;20080;-86
2024/01/18 07:30:34;;;;;;;6.18;1.83;;;-2.60;99.90;;;;;;6166840;23;20437;-86
2024/01/18 07:33:01;;;;;;;6.22;2.05;;;-2.60;99.90;;;;;;6142587;23;20025;-86
2024/01/18 07:35:28;;;;;;;5.80;1.80;;;-2.60;99.90;;;;;;6142588;23;20018;-86
2024/01/18 07:37:54;;;;;;;3.85;1.40;;;-2.60;99.90;;;;;;6142118;23;20029;-86
2024/01/18 07:40:21;;;;;;;4.72;1.38;;;-2.70;99.90;;;;;;6141610;23;20514;-86
2024/01/18 07:42:47;;;;;;;5.57;1.50;;;-2.70;99.90;;;;;;6141206;23;20045;-86
2024/01/18 07:45:14;;;;;;;8.68;1.58;;;-2.70;99.90;;;;;;6141640;23;20623;-86
2024/01/18 07:47:42;;;;;;;6.93;1.98;;;-2.70;99.90;;;;;;6166138;23;20010;-85
2024/01/18 07:50:09;;;;;;;5.25;1.48;;;-0.90;99.90;;;;;;6142046;23;20014;-86
2024/01/18 07:52:38;;;;;;;3.83;1.70;;;-2.80;99.90;;;;;;6142216;23;20022;-86
2024/01/18 07:55:06;;;;;;;6.30;1.63;;;-2.80;99.90;;;;;;6141991;23;20052;-86
2024/01/18 07:57:34;;;;;;;3.88;1.45;;;-2.90;99.90;;;;;;6141438;23;20014;-86
2024/01/18 08:00:01;;;;;;;4.07;1.42;;;-2.90;99.90;;;;;;6141963;23;20381;-86
2024/01/18 08:02:28;;;;;;;4.97;1.38;;;-2.80;99.90;;;;;;6141787;23;20026;-86
2024/01/18 08:04:54;;;;;;;5.45;1.60;;;-2.90;99.90;;;;;;6166954;23;20010;-85
2024/01/18 08:07:21;;;;;;;5.05;1.45;;;-2.70;99.90;;;;;;6142135;23;20010;-85
2024/01/18 08:09:47;;;;;;;8.10;1.90;;;-2.50;99.90;;;;;;6141742;23;20021;-85
2024/01/18 08:12:14;;;;;;;9.60;2.15;;;-2.50;99.90;;;;;;6146082;23;20076;-85
2024/01/18 08:14:41;;;;;;;8.57;1.90;;;-2.50;99.90;;;;;;6147333;23;20381;-85
2024/01/18 08:17:08;;;;;;;7.53;1.83;;;-2.40;99.90;;;;;;6146699;23;20024;-85
2024/01/18 08:19:35;;;;;;;4.30;1.40;;;-2.40;99.90;;;;;;6171645;23;20348;-85
2024/01/18 08:22:02;;;;;;;6.88;1.45;;;-2.40;99.90;;;;;;6147809;23;20067;-85
2024/01/18 08:24:29;;;;;;;10.90;1.50;;;-2.40;99.90;;;;;;6148881;23;20013;-85
2024/01/18 08:26:56;;;;;;;8.52;1.75;;;-2.30;99.90;;;;;;6149046;23;20088;-85
2024/01/18 08:29:22;;;;;;;3.97;1.15;;;-2.40;99.90;;;;;;6173068;23;20024;-85
2024/01/18 08:31:49;;;;;;;6.18;1.27;;;-2.30;99.90;;;;;;6172881;23;20336;-85
2024/01/18 08:34:16;;;;;;;2.40;1.00;;;-2.40;99.90;;;;;;6148532;23;20013;-85
2024/01/18 08:36:42;;;;;;;4.63;1.38;;;-1.30;99.90;;;;;;6173304;23;20088;-85
2024/01/18 08:39:09;;;;;;;7.82;1.23;;;-2.50;99.90;;;;;;6148336;23;20093;-86
2024/01/18 08:41:35;;;;;;;3.25;1.20;;;-2.40;99.90;;;;;;6148423;23;20009;-86
2024/01/18 08:44:02;;;;;;;2.20;0.98;;;-2.50;99.90;;;;;;6148624;23;20022;-86
2024/01/18 08:46:29;;;;;;;4.13;0.98;;;-2.40;99.90;;;;;;6148590;23;20092;-85
2024/01/18 08:48:55;;;;;;;3.05;1.10;;;-2.40;99.90;;;;;;6148949;23;20013;-85
2024/01/18 08:51:22;;;;;;;4.75;1.20;;;-2.40;99.90;;;;;;6148667;23;20016;-86
2024/01/18 08:53:49;;;;;;;4.82;1.20;;;-2.40;99.90;;;;;;6172925;23;20577;-85
2024/01/18 08:56:16;;;;;;;4.10;1.30;;;-2.40;99.90;;;;;;6148628;23;20060;-85
2024/01/18 08:58:43;;;;;;;2.33;1.00;;;-2.40;99.90;;;;;;6148414;23;20064;-86
2024/01/18 09:01:10;;;;;;;4.07;1.40;;;-2.60;99.90;;;;;;6148319;23;20449;-85
2024/01/18 09:03:36;;;;;;;3.83;1.52;;;-2.40;99.90;;;;;;6148051;23;20028;-86
2024/01/18 09:06:03;;;;;;;3.90;1.15;;;-2.30;99.90;;;;;;6148262;23;20025;-86
2024/01/18 09:08:30;;;;;;;7.05;1.38;;;-2.40;99.90;;;;;;6148361;23;20085;-86
2024/01/18 09:10:57;;;;;;;3.47;1.60;;;-2.30;99.90;;;;;;6148438;23;20480;-86
2024/01/18 09:13:23;;;;;;;3.40;1.10;;;-2.20;99.90;;;;;;6142912;23;20049;-86
2024/01/18 09:15:51;;;;;;;4.78;1.30;;;-2.20;99.90;;;;;;6142737;23;20409;-88
2024/01/18 09:18:18;;;;;;;3.95;1.27;;;-2.10;99.90;;;;;;6143146;23;20473;-87
2024/01/18 09:20:45;;;;;;;7.53;1.75;;;-2.00;99.90;;;;;;6143778;23;20057;-87
2024/01/18 09:23:12;;;;;;;5.32;1.20;;;-2.00;99.90;;;;;;6143648;23;20065;-87
2024/01/18 09:25:42;;;;;;;6.38;1.45;;;-1.80;99.90;;;;;;6168335;23;20014;-86
2024/01/18 09:28:11;;;;;;;2.85;1.20;;;-1.70;99.90;;;;;;6143608;23;20010;-87
2024/01/18 09:30:38;;;;;;;6.93;1.60;;;-1.60;99.90;;;;;;6143089;23;20010;-86
2024/01/18 09:33:04;;;;;;;7.70;1.63;;;-0.30;99.90;;;;;;6143122;23;20013;-86
2024/01/18 09:35:31;;;;;;;4.82;1.55;;;-1.60;99.90;;;;;;6167823;23;20084;-86
2024/01/18 09:37:58;;;;;;;3.38;1.52;;;-1.60;99.90;;;;;;6143690;23;20427;-88
2024/01/18 09:40:27;;;;;;;4.32;1.50;;;-1.60;99.90;;;;;;6142449;23;20357;-87
2024/01/18 09:42:55;;;;;;;6.15;1.75;;;-1.50;99.90;;;;;;6143861;23;20093;-88
2024/01/18 09:45:26;;;;;;;4.93;1.60;;;-0.80;99.90;;;;;;6143484;23;20540;-88
2024/01/18 09:47:53;;;;;;;10.88;1.90;;;-1.30;99.90;;;;;;6143278;23;20006;-87
2024/01/18 09:50:21;;;;;;;12.65;1.75;;;-1.30;99.90;;;;;;6143547;23;20010;-87
2024/01/18 09:52:49;;;;;;;8.27;1.90;;;-1.30;99.90;;;;;;6142521;23;20069;-87
2024/01/18 09:55:16;;;;;;;5.43;1.58;;;-1.10;99.90;;;;;;6142946;23;20508;-87
2024/01/18 09:57:48;;;;;;;7.13;1.30;;;-1.00;99.90;;;;;;6142930;23;20010;-86
2024/01/18 10:00:15;;;;;;;4.65;1.10;;;-0.90;99.90;;;;;;6143145;23;20029;-87
2024/01/18 10:02:42;;;;;;;4.50;1.30;;;-0.90;99.90;;;;;;6143200;23;20342;-87
2024/01/18 10:05:12;;;;;;;4.20;1.23;;;-0.90;99.90;;;;;;6142430;23;20010;-87
2024/01/18 10:07:40;;;;;;;7.38;1.40;;;-0.80;99.90;;;;;;6143129;23;20592;-86
2024/01/18 10:10:08;;;;;;;4.50;1.40;;;0.90;99.90;;;;;;6142849;23;20092;-86
2024/01/18 10:12:34;;;;;;;7.65;1.20;;;-0.70;99.90;;;;;;6143025;23;20104;-87
2024/01/18 10:15:01;;;;;;;5.07;1.42;;;0.80;99.90;;;;;;6142692;23;20049;-87
2024/01/18 10:17:29;;;;;;;7.38;1.80;;;-0.80;99.90;;;;;;6143211;23;20013;-87
2024/01/18 10:19:57;;;;;;;8.00;1.50;;;0.80;99.90;;;;;;6167744;23;20418;-87
2024/01/18 10:22:24;;;;;;;7.35;1.30;;;-0.50;99.90;;;;;;6143307;23;20014;-86
2024/01/18 10:24:52;;;;;;;9.75;2.35;;;0.50;99.90;;;;;;6142962;23;20014;-86
2024/01/18 10:27:19;;;;;;;3.63;1.20;;;-0.30;99.90;;;;;;6142935;23;20322;-86
2024/01/18 10:29:45;;;;;;;7.15;1.33;;;-0.30;99.90;;;;;;6143072;23;20418;-86
2024/01/18 10:32:13;;;;;;;3.17;1.27;;;1.30;99.90;;;;;;6143037;23;20064;-87
2024/01/18 10:34:40;;;;;;;6.28;1.00;;;-0.10;99.90;;;;;;6142910;23;20018;-87
2024/01/18 10:37:08;;;;;;;2.67;1.20;;;-0.10;99.90;;;;;;6143400;23;20064;-87
2024/01/18 10:39:39;;;;;;;3.35;1.52;;;-0.10;99.90;;;;;;6142500;23;20018;-86
2024/01/18 10:42:13;;;;;;;4.43;1.23;;;0.00;99.90;;;;;;6142824;23;20016;-87
2024/01/18 10:44:41;;;;;;;8.57;1.13;;;1.00;99.90;;;;;;6142134;23;20006;-87
2024/01/18 10:47:09;;;;;;;3.90;1.15;;;0.40;99.90;;;;;;6142901;23;20467;-87
2024/01/18 10:49:36;;;;;;;4.05;1.25;;;0.60;99.90;;;;;;6142342;23;20019;-88
2024/01/18 10:52:07;;;;;;;4.60;1.17;;;0.80;99.90;;;;;;6142945;23;20006;-88
2024/01/18 10:54:34;;;;;;;2.03;1.00;;;0.90;99.90;;;;;;6143499;23;20010;-88
2024/01/18 10:57:01;;;;;;;3.80;1.27;;;1.00;99.90;;;;;;6168071;23;20014;-88
2024/01/18 10:59:31;;;;;;;4.20;1.98;;;1.00;99.90;;;;;;6142972;23;20021;-88
2024/01/18 11:01:59;;;;;;;3.17;1.92;;;1.40;99.90;;;;;;6167020;23;20014;-88
2024/01/18 11:04:27;;;;;;;4.18;1.85;;;1.50;99.90;;;;;;6167852;23;20010;-88
2024/01/18 11:06:58;;;;;;;3.20;1.05;;;2.60;99.90;;;;;;6166857;23;20010;-87
2024/01/18 11:09:27;;;;;;;5.47;1.27;;;0.90;99.90;;;;;;6142010;23;20345;-86
2024/01/18 11:11:57;;;;;;;4.00;1.40;;;1.90;99.90;;;;;;6142098;23;20348;-86
2024/01/18 11:14:26;;;;;;;3.05;1.25;;;1.70;99.90;;;;;;6142085;23;20010;-85
2024/01/18 11:17:05;;;;;;;3.30;1.10;;;1.20;99.90;;;;;;6167045;23;20022;-85
2024/01/18 11:19:44;;;;;;;3.95;0.90;;;1.30;99.90;;;;;;6142496;23;20131;-86
2024/01/18 11:22:22;;;;;;;3.05;0.95;;;1.40;99.90;;;;;;6141893;23;20020;-86
2024/01/18 11:24:49;;;;;;;6.80;1.13;;;1.30;99.90;;;;;;6141760;23;20053;-86
2024/01/18 11:27:17;;;;;;;2.72;1.05;;;1.30;99.90;;;;;;6142052;23;20314;-85
2024/01/18 11:29:45;;;;;;;2.58;0.93;;;1.20;99.90;;;;;;6141946;23;20021;-86
2024/01/18 11:32:14;;;;;;;3.25;1.00;;;1.20;99.90;;;;;;6141963;23;20093;-86
2024/01/18 11:34:41;;;;;;;2.83;1.00;;;2.70;99.90;;;;;;6141724;23;20333;-86
2024/01/18 11:37:13;;;;;;;2.17;1.00;;;0.90;99.90;;;;;;6141906;23;20480;-86
2024/01/18 11:39:49;;;;;;;2.92;1.00;;;0.90;99.90;;;;;;6141976;23;20407;-86
2024/01/18 11:42:26;;;;;;;3.35;1.08;;;0.90;99.90;;;;;;6141755;23;20025;-86
2024/01/18 11:45:12;;;;;;;3.85;0.90;;;0.80;99.90;;;;;;6141513;23;20053;-86
2024/01/18 11:47:39;;;;;;;3.67;1.55;;;0.80;99.90;;;;;;6141643;23;20452;-86
2024/01/18 11:50:10;;;;;;;3.50;1.27;;;0.60;99.90;;;;;;6141750;23;20349;-86
2024/01/18 11:52:39;;;;;;;5.80;1.08;;;0.60;99.90;;;;;;6141774;23;20053;-86
2024/01/18 11:55:07;;;;;;;2.83;1.10;;;1.60;99.90;;;;;;6141912;23;20381;-86
2024/01/18 11:57:34;;;;;;;5.38;1.30;;;0.60;99.90;;;;;;6143994;23;20024;-86
2024/01/18 12:00:02;;;;;;;4.70;1.13;;;1.60;99.90;;;;;;6168478;23;20096;-86
2024/01/18 12:02:29;;;;;;;4.80;1.00;;;2.20;99.90;;;;;;6143666;23;20036;-85
2024/01/18 12:04:57;;;;;;;1.70;0.82;;;2.10;99.90;;;;;;6143781;23;20021;-86
2024/01/18 12:07:25;;;;;;;2.28;0.73;;;0.60;99.90;;;;;;6143311;23;20332;-86
2024/01/18 12:09:52;;;;;;;2.50;0.85;;;2.10;99.90;;;;;;6143519;23;20153;-85
2024/01/18 12:12:19;;;;;;;3.38;1.00;;;0.80;99.90;;;;;;6144829;23;20054;-86
2024/01/18 12:14:47;;;;;;;5.03;1.00;;;0.90;99.90;;;;;;6173218;23;20445;-85
2024/01/18 12:17:15;;;;;;;5.57;0.98;;;2.40;99.90;;;;;;6148192;23;20013;-86
2024/01/18 12:19:47;;;;;;;1.65;0.90;;;0.90;99.90;;;;;;6148487;23;20036;-85
2024/01/18 12:22:16;;;;;;;9.65;1.40;;;0.90;99.90;;;;;;6148484;23;20072;-86
2024/01/18 12:24:44;;;;;;;3.83;1.38;;;2.20;99.90;;;;;;6148794;23;20014;-86
2024/01/18 12:27:12;;;;;;;2.88;0.95;;;1.80;99.90;;;;;;6148492;23;20014;-86
2024/01/18 12:29:41;;;;;;;3.00;1.02;;;1.10;99.90;;;;;;6148587;23;20088;-85
2024/01/18 12:32:11;;;;;;;3.45;1.10;;;2.20;99.90;;;;;;6148362;23;20017;-86
2024/01/18 12:34:38;;;;;;;8.95;1.38;;;2.10;99.90;;;;;;6173256;23;20017;-85
2024/01/18 12:37:05;;;;;;;4.15;1.00;;;1.20;99.90;;;;;;6148471;23;20041;-86
2024/01/18 12:39:33;;;;;;;5.03;1.00;;;2.90;99.90;;;;;;6148726;23;20426;-86
2024/01/18 12:42:01;;;;;;;4.00;1.05;;;2.30;99.90;;;;;;6173100;23;20052;-86
2024/01/18 12:44:29;;;;;;;1.98;0.90;;;3.00;99.90;;;;;;6148792;23;20124;-85
2024/01/18 12:46:55;;;;;;;6.95;1.45;;;1.30;99.90;;;;;;6148323;23;20097;-85
2024/01/18 12:49:24;;;;;;;5.50;1.10;;;2.70;99.90;;;;;;6172925;23;20041;-85